createdAt,value
2018-09-04T00:01:26.789Z,24.93
2018-09-04T00:03:55.127Z,24.67
2018-09-04T00:06:23.475Z,24.40
2018-09-04T00:08:51.799Z,23.80
2018-09-04T00:11:20.151Z,24.20
2018-09-04T00:14:03.164Z,22.40
2018-09-04T00:16:31.516Z,24.33
2018-09-04T00:18:59.836Z,25.10
2018-09-04T00:21:28.176Z,24.47
2018-09-04T00:23:56.492Z,23.47
2018-09-04T00:26:24.879Z,23.37
2018-09-04T00:28:53.203Z,23.67
2018-09-04T00:31:21.557Z,24.30
2018-09-04T00:33:49.908Z,25.13
2018-09-04T00:36:18.240Z,26.50
2018-09-04T00:38:46.620Z,25.07
2018-09-04T00:41:14.976Z,25.93
2018-09-04T00:43:43.748Z,23.73
2018-09-04T00:46:12.097Z,24.17
2018-09-04T00:48:40.448Z,27.43
2018-09-04T00:51:08.832Z,26.77
2018-09-04T00:53:37.424Z,28.20
2018-09-04T00:56:05.786Z,30.17
2018-09-04T00:58:34.144Z,27.53
2018-09-04T01:01:02.504Z,26.80
2018-09-04T01:03:30.824Z,25.63
2018-09-04T01:05:59.203Z,26.37
2018-09-04T01:08:27.535Z,25.83
2018-09-04T01:10:56.471Z,25.50
2018-09-04T01:13:24.807Z,26.93
2018-09-04T01:15:53.181Z,30.53
2018-09-04T01:18:21.813Z,26.90
2018-09-04T01:20:50.168Z,30.23
2018-09-04T01:23:18.484Z,30.17
2018-09-04T01:25:46.828Z,28.30
2018-09-04T01:28:15.160Z,28.30
2018-09-04T01:30:43.513Z,28.97
2018-09-04T01:33:11.851Z,30.03
2018-09-04T01:35:40.275Z,28.23
2018-09-04T01:38:08.597Z,29.47
2018-09-04T01:40:36.927Z,29.53
2018-09-04T01:43:05.907Z,30.57
2018-09-04T01:45:35.064Z,29.07
2018-09-04T01:48:03.431Z,29.57
2018-09-04T01:50:31.757Z,29.13
2018-09-04T01:53:00.108Z,31.23
2018-09-04T01:55:28.451Z,28.97
2018-09-04T01:57:56.820Z,31.17
2018-09-04T02:00:25.132Z,33.40
2018-09-04T02:02:53.990Z,32.83
2018-09-04T02:05:23.328Z,31.93
2018-09-04T02:07:51.789Z,34.47
2018-09-04T02:10:20.140Z,35.00
2018-09-04T02:12:48.496Z,32.07
2018-09-04T02:15:17.243Z,34.17
2018-09-04T02:17:45.589Z,35.90
2018-09-04T02:20:13.940Z,37.73
2018-09-04T02:22:42.359Z,36.93
2018-09-04T02:25:10.699Z,36.97
2018-09-04T02:27:39.276Z,40.40
2018-09-04T02:30:07.628Z,35.70
2018-09-04T02:32:35.989Z,33.30
2018-09-04T02:35:04.588Z,33.23
2018-09-04T02:37:32.940Z,34.67
2018-09-04T02:40:01.277Z,30.00
2018-09-04T02:42:29.644Z,27.40
2018-09-04T02:44:57.956Z,26.07
2018-09-04T02:47:26.318Z,25.43
2018-09-04T02:49:54.653Z,25.50
2018-09-04T02:52:23.015Z,27.30
2018-09-04T02:54:51.351Z,28.30
2018-09-04T02:57:19.696Z,28.93
2018-09-04T02:59:48.549Z,28.83
2018-09-04T03:02:16.928Z,25.07
2018-09-04T03:04:45.275Z,26.83
2018-09-04T03:07:13.632Z,28.87
2018-09-04T03:09:42.292Z,29.23
2018-09-04T03:12:10.646Z,30.53
2018-09-04T03:14:38.977Z,31.83
2018-09-04T03:17:07.360Z,30.03
2018-09-04T03:19:35.676Z,33.07
2018-09-04T03:22:04.037Z,33.07
2018-09-04T03:24:32.688Z,33.33
2018-09-04T03:27:01.041Z,32.10
2018-09-04T03:29:29.379Z,34.00
2018-09-04T03:31:57.720Z,36.63
2018-09-04T03:34:26.040Z,33.43
2018-09-04T03:36:54.415Z,34.50
2018-09-04T03:39:22.767Z,34.13
2018-09-04T03:41:51.088Z,32.67
2018-09-04T03:44:19.567Z,33.43
2018-09-04T03:46:47.833Z,34.70
2018-09-04T03:49:16.187Z,34.40
2018-09-04T03:51:44.518Z,32.57
2018-09-04T03:54:12.888Z,34.87
2018-09-04T03:56:41.240Z,31.97
2018-09-04T03:59:09.608Z,33.90
2018-09-04T04:01:37.944Z,36.10
2018-09-04T04:04:06.324Z,34.17
2018-09-04T04:06:34.807Z,33.70
2018-09-04T04:09:03.783Z,36.87
2018-09-04T04:11:32.080Z,36.00
2018-09-04T04:14:00.419Z,36.57
2018-09-04T04:16:28.747Z,38.07
2018-09-04T04:18:57.090Z,38.60
2018-09-04T04:21:25.417Z,34.53
2018-09-04T04:23:53.791Z,36.50
2018-09-04T04:26:22.107Z,36.20
2018-09-04T04:28:50.502Z,34.53
2018-09-04T04:31:18.824Z,34.07
2018-09-04T04:33:47.155Z,33.23
2018-09-04T04:36:15.481Z,32.83
2018-09-04T04:38:43.844Z,33.70
2018-09-04T04:41:12.164Z,32.50
2018-09-04T04:43:40.516Z,35.63
2018-09-04T04:46:08.844Z,33.70
2018-09-04T04:48:37.212Z,32.57
2018-09-04T04:51:05.732Z,31.90
2018-09-04T04:53:34.084Z,30.67
2018-09-04T04:56:02.403Z,28.73
2018-09-04T04:58:30.785Z,30.73
2018-09-04T05:00:59.228Z,32.27
2018-09-04T05:03:27.580Z,31.07
2018-09-04T05:05:55.920Z,30.80
2018-09-04T05:08:24.265Z,30.97
2018-09-04T05:10:53.050Z,33.47
2018-09-04T05:13:21.427Z,33.67
2018-09-04T05:15:49.748Z,31.80
2018-09-04T05:18:18.140Z,26.50
2018-09-04T05:20:46.492Z,26.73
2018-09-04T05:23:14.840Z,27.07
2018-09-04T05:25:43.676Z,25.17
2018-09-04T05:28:12.027Z,26.60
2018-09-04T05:30:40.389Z,27.07
2018-09-04T05:33:14.084Z,25.97
2018-09-04T05:35:46.596Z,27.00
2018-09-04T05:38:14.933Z,26.83
2018-09-04T05:40:43.269Z,25.63
2018-09-04T05:43:15.195Z,25.30
2018-09-04T05:45:43.575Z,25.10
2018-09-04T05:48:14.564Z,25.77
2018-09-04T05:50:42.961Z,26.77
2018-09-04T05:53:11.348Z,27.27
2018-09-04T05:55:39.835Z,27.57
2018-09-04T05:58:08.157Z,28.13
2018-09-04T06:00:38.785Z,29.53
2018-09-04T06:03:07.132Z,31.50
2018-09-04T06:05:35.508Z,31.67
2018-09-04T06:08:03.836Z,32.40
2018-09-04T06:10:32.172Z,33.87
2018-09-04T06:13:00.503Z,33.37
2018-09-04T06:15:29.480Z,35.77
2018-09-04T06:17:57.812Z,35.47
2018-09-04T06:20:26.181Z,32.10
2018-09-04T06:22:54.509Z,32.07
2018-09-04T06:25:22.863Z,33.33
2018-09-04T06:27:51.212Z,35.00
2018-09-04T06:30:19.572Z,33.80
2018-09-04T06:32:47.902Z,34.47
2018-09-04T06:35:16.262Z,35.03
2018-09-04T06:37:44.600Z,35.83
2018-09-04T06:40:12.971Z,35.50
2018-09-04T06:42:43.943Z,36.00
2018-09-04T06:45:12.304Z,35.73
2018-09-04T06:47:40.729Z,35.57
2018-09-04T06:50:09.268Z,35.27
2018-09-04T06:52:37.593Z,35.63
2018-09-04T06:55:06.205Z,34.57
2018-09-04T06:57:34.544Z,32.20
2018-09-04T07:00:02.941Z,33.43
2018-09-04T07:02:31.275Z,33.07
2018-09-04T07:04:59.620Z,31.53
2018-09-04T07:07:27.940Z,30.93
2018-09-04T07:09:56.425Z,29.77
2018-09-04T07:12:24.760Z,28.63
2018-09-04T07:14:53.161Z,26.33
2018-09-04T07:17:21.500Z,25.37
2018-09-04T07:19:49.865Z,22.83
2018-09-04T07:22:18.673Z,19.67
2018-09-04T07:24:47.047Z,20.30
2018-09-04T07:27:15.656Z,19.67
2018-09-04T07:29:44.034Z,20.10
2018-09-04T07:32:12.833Z,17.97
2018-09-04T07:34:41.221Z,16.50
2018-09-04T07:37:09.573Z,16.10
2018-09-04T07:39:37.942Z,16.23
2018-09-04T07:42:06.556Z,15.70
2018-09-04T07:44:35.732Z,14.97
2018-09-04T07:47:04.121Z,13.80
2018-09-04T07:49:32.473Z,11.27
2018-09-04T07:52:00.824Z,12.20
2018-09-04T07:54:29.140Z,12.70
2018-09-04T07:56:57.549Z,11.50
2018-09-04T07:59:25.893Z,11.60
2018-09-04T08:01:54.256Z,11.83
2018-09-04T08:04:22.580Z,12.40
2018-09-04T08:06:52.550Z,10.77
2018-09-04T08:09:20.876Z,9.80
2018-09-04T08:11:49.369Z,9.87
2018-09-04T08:14:17.712Z,8.43
2018-09-04T08:16:46.101Z,10.83
2018-09-04T08:19:14.432Z,11.30
2018-09-04T08:21:42.776Z,10.37
2018-09-04T08:24:11.334Z,10.87
2018-09-04T08:26:39.679Z,10.23
2018-09-04T08:29:07.991Z,9.40
2018-09-04T08:31:36.351Z,7.60
2018-09-04T08:34:04.706Z,8.30
2018-09-04T08:36:33.316Z,10.60
2018-09-04T08:39:01.660Z,11.10
2018-09-04T08:41:30.024Z,11.93
2018-09-04T08:43:58.368Z,13.07
2018-09-04T08:46:26.728Z,12.03
2018-09-04T08:48:55.056Z,15.87
2018-09-04T08:51:23.408Z,12.00
2018-09-04T08:53:51.732Z,11.00
2018-09-04T08:56:20.081Z,11.27
2018-09-04T08:58:48.428Z,11.17
2018-09-04T09:01:16.792Z,10.80
2018-09-04T09:03:45.230Z,8.37
2018-09-04T09:06:13.528Z,8.07
2018-09-04T09:08:41.872Z,10.30
2018-09-04T09:11:10.265Z,10.50
2018-09-04T09:13:39.020Z,8.67
2018-09-04T09:16:07.445Z,7.57
2018-09-04T09:18:35.784Z,8.67
2018-09-04T09:21:04.156Z,8.83
2018-09-04T09:23:32.480Z,8.40
2018-09-04T09:26:01.465Z,7.77
2018-09-04T09:28:29.800Z,7.50
2018-09-04T09:30:58.372Z,6.90
2018-09-04T09:33:26.704Z,6.33
2018-09-04T09:35:55.052Z,6.50
2018-09-04T09:38:23.365Z,5.77
2018-09-04T09:40:51.791Z,6.20
2018-09-04T09:43:20.117Z,6.20
2018-09-04T09:45:48.469Z,6.13
2018-09-04T09:48:16.871Z,5.50
2018-09-04T09:50:45.453Z,6.20
2018-09-04T09:53:13.826Z,6.40
2018-09-04T09:55:45.588Z,5.67
2018-09-04T09:58:13.911Z,5.47
2018-09-04T10:00:47.579Z,5.67
2018-09-04T10:03:21.384Z,9.37
2018-09-04T10:05:49.725Z,5.83
2018-09-04T10:08:18.129Z,5.30
2018-09-04T10:10:46.665Z,5.40
2018-09-04T10:13:15.024Z,5.53
2018-09-04T10:15:43.432Z,5.57
2018-09-04T10:18:11.785Z,6.27
2018-09-04T10:20:40.824Z,5.83
2018-09-04T10:23:09.204Z,5.90
2018-09-04T10:25:37.527Z,5.93
2018-09-04T10:28:05.920Z,5.97
2018-09-04T10:30:34.611Z,6.40
2018-09-04T10:33:04.024Z,5.73
2018-09-04T10:35:39.131Z,6.17
2018-09-04T10:38:13.005Z,6.60
2018-09-04T10:40:47.234Z,5.97
2018-09-04T10:43:17.690Z,5.80
2018-09-04T10:45:56.024Z,6.00
2018-09-04T10:48:29.250Z,5.90
2018-09-04T10:51:04.112Z,5.90
2018-09-04T10:53:38.115Z,5.53
2018-09-04T10:56:08.905Z,6.00
2018-09-04T10:58:42.937Z,6.13
2018-09-04T11:01:12.540Z,5.23
2018-09-04T11:03:42.932Z,5.87
2018-09-04T11:06:15.910Z,6.43
2018-09-04T11:08:46.477Z,9.23
2018-09-04T11:11:16.521Z,13.83
2018-09-04T11:13:46.718Z,6.07
2018-09-04T11:16:16.687Z,5.50
2018-09-04T11:18:46.449Z,5.27
2018-09-04T11:21:19.491Z,5.70
2018-09-04T11:23:50.432Z,5.70
2018-09-04T11:26:20.702Z,5.67
2018-09-04T11:28:53.658Z,5.50
2018-09-04T11:31:32.842Z,5.77
2018-09-04T11:34:04.544Z,5.57
2018-09-04T11:36:34.414Z,5.60
2018-09-04T11:39:04.749Z,5.40
2018-09-04T11:41:38.656Z,6.23
2018-09-04T11:44:17.794Z,6.93
2018-09-04T11:46:48.689Z,6.60
2018-09-04T11:49:21.936Z,7.37
2018-09-04T11:51:51.609Z,6.07
2018-09-04T11:54:21.665Z,6.10
2018-09-04T11:56:52.167Z,6.30
2018-09-04T11:59:22.306Z,6.60
2018-09-04T12:01:57.110Z,6.10
2018-09-04T12:04:27.422Z,5.40
2018-09-04T12:06:59.348Z,5.83
2018-09-04T12:09:29.246Z,5.63
2018-09-04T12:11:59.255Z,5.83
2018-09-04T12:14:33.895Z,6.07
2018-09-04T12:17:06.151Z,5.90
2018-09-04T12:22:29.395Z,6.57
2018-09-04T12:25:00.753Z,6.50
2018-09-04T12:27:30.822Z,9.87
2018-09-04T12:30:00.362Z,7.13
2018-09-04T12:32:28.707Z,6.30
2018-09-04T12:34:58.204Z,6.57
2018-09-04T12:37:26.589Z,5.83
2018-09-04T12:39:58.384Z,6.50
2018-09-04T12:42:27.813Z,5.97
2018-09-04T12:44:58.284Z,6.70
2018-09-04T12:47:26.637Z,6.17
2018-09-04T12:49:55.164Z,6.43
2018-09-04T12:52:23.913Z,6.53
2018-09-04T12:54:52.279Z,7.27
2018-09-04T12:57:21.023Z,6.60
2018-09-04T12:59:49.439Z,6.93
2018-09-04T13:02:17.756Z,6.90
2018-09-04T13:04:46.800Z,6.80
2018-09-04T13:07:15.142Z,6.93
2018-09-04T13:09:43.616Z,6.93
2018-09-04T13:12:11.951Z,6.73
2018-09-04T13:14:40.770Z,5.73
2018-09-04T13:17:08.992Z,6.33
2018-09-04T13:19:38.145Z,6.90
2018-09-04T13:22:06.532Z,6.47
2018-09-04T13:24:35.064Z,6.60
2018-09-04T13:27:04.482Z,6.70
2018-09-04T13:29:34.061Z,6.30
2018-09-04T13:32:02.452Z,6.83
2018-09-04T13:34:32.166Z,6.50
2018-09-04T13:37:00.760Z,7.23
2018-09-04T13:39:30.858Z,7.93
2018-09-04T13:42:01.604Z,15.90
2018-09-04T13:44:36.115Z,20.43
2018-09-04T13:47:09.536Z,9.30
2018-09-04T13:49:40.279Z,7.90
2018-09-04T13:52:13.614Z,7.97
2018-09-04T13:54:44.634Z,7.33
2018-09-04T13:57:14.380Z,8.60
2018-09-04T13:59:45.642Z,7.77
2018-09-04T14:02:15.494Z,7.97
2018-09-04T14:04:50.811Z,8.13
2018-09-04T14:07:30.832Z,7.63
2018-09-04T14:10:00.913Z,7.50
2018-09-04T14:12:31.167Z,7.57
2018-09-04T14:15:01.754Z,7.60
2018-09-04T14:17:31.086Z,7.50
2018-09-04T14:20:03.617Z,7.90
2018-09-04T14:22:39.191Z,7.70
2018-09-04T14:25:11.438Z,7.30
2018-09-04T14:27:44.712Z,7.53
2018-09-04T14:30:16.145Z,7.87
2018-09-04T14:32:45.153Z,7.77
2018-09-04T14:35:18.695Z,8.23
2018-09-04T14:37:48.178Z,7.97
2018-09-04T14:40:18.317Z,8.30
2018-09-04T14:42:49.029Z,7.30
2018-09-04T14:45:19.120Z,7.67
2018-09-04T14:47:52.623Z,7.80
2018-09-04T14:50:22.664Z,8.10
2018-09-04T14:52:55.740Z,7.80
2018-09-04T14:55:26.429Z,7.70
2018-09-04T14:57:56.665Z,8.03
2018-09-04T15:00:34.990Z,7.87
2018-09-04T15:03:07.085Z,20.60
2018-09-04T15:05:37.713Z,7.77
2018-09-04T15:08:10.531Z,8.00
2018-09-04T15:10:40.256Z,7.53
2018-09-04T15:13:09.800Z,7.47
2018-09-04T15:15:41.800Z,7.30
2018-09-04T15:18:12.204Z,7.20
2018-09-04T15:20:41.901Z,7.70
2018-09-04T15:23:12.892Z,7.40
2018-09-04T15:25:53.781Z,8.70
2018-09-04T15:28:25.196Z,8.23
2018-09-04T15:31:00.525Z,8.43
2018-09-04T15:33:30.252Z,8.30
2018-09-04T15:36:01.003Z,8.00
2018-09-04T15:38:30.685Z,8.33
2018-09-04T15:41:04.261Z,8.17
2018-09-04T15:43:37.983Z,7.87
2018-09-04T15:46:11.688Z,7.80
2018-09-04T15:48:41.770Z,8.10
2018-09-04T15:51:15.532Z,7.87
2018-09-04T15:53:48.483Z,8.03
2018-09-04T15:56:21.143Z,8.13
2018-09-04T15:58:56.934Z,8.00
2018-09-04T16:01:27.715Z,7.60
2018-09-04T16:03:58.008Z,9.87
2018-09-04T16:06:27.834Z,12.17
2018-09-04T16:09:05.300Z,9.00
2018-09-04T16:11:39.294Z,8.73
2018-09-04T16:14:12.061Z,8.03
2018-09-04T16:16:44.637Z,8.10
2018-09-04T16:19:19.437Z,8.53
2018-09-04T16:21:49.926Z,8.33
2018-09-04T16:24:23.205Z,8.60
2018-09-04T16:26:58.005Z,8.30
2018-09-04T16:29:27.960Z,8.67
2018-09-04T16:31:57.598Z,8.40
2018-09-04T16:34:27.897Z,8.77
2018-09-04T16:37:00.222Z,8.83
2018-09-04T16:39:30.935Z,8.63
2018-09-04T16:42:04.164Z,9.03
2018-09-04T16:44:37.925Z,9.00
2018-09-04T16:47:13.618Z,9.00
2018-09-04T16:49:43.893Z,8.80
2018-09-04T16:52:18.222Z,8.53
2018-09-04T16:54:50.439Z,8.93
2018-09-04T16:57:21.192Z,8.73
2018-09-04T16:59:55.643Z,9.20
2018-09-04T17:02:25.806Z,8.37
2018-09-04T17:05:02.674Z,9.20
2018-09-04T17:07:32.783Z,8.70
2018-09-04T17:10:04.130Z,8.60
2018-09-04T17:12:34.961Z,9.07
2018-09-04T17:15:05.025Z,8.50
2018-09-04T17:17:34.898Z,8.60
2018-09-04T17:20:06.180Z,8.57
2018-09-04T17:22:39.744Z,23.93
2018-09-04T17:25:09.686Z,10.10
2018-09-04T17:27:39.429Z,7.97
2018-09-04T17:30:12.052Z,8.33
2018-09-04T17:32:41.437Z,9.07
2018-09-04T17:35:11.049Z,8.67
2018-09-04T17:37:41.858Z,9.07
2018-09-04T17:40:11.638Z,8.27
2018-09-04T17:42:43.204Z,8.40
2018-09-04T17:45:13.687Z,8.33
2018-09-04T17:47:51.164Z,8.30
2018-09-04T17:50:21.229Z,8.33
2018-09-04T17:52:51.213Z,8.13
2018-09-04T17:55:26.314Z,8.47
2018-09-04T17:58:03.315Z,8.57
2018-09-04T18:00:36.602Z,7.83
2018-09-04T18:03:08.290Z,8.40
2018-09-04T18:05:39.541Z,8.73
2018-09-04T18:08:12.047Z,8.30
2018-09-04T18:10:42.435Z,8.60
2018-09-04T18:13:14.431Z,8.70
2018-09-04T18:15:48.327Z,8.80
2018-09-04T18:18:18.647Z,8.80
2018-09-04T18:20:48.780Z,8.87
2018-09-04T18:23:19.470Z,8.87
2018-09-04T18:25:52.853Z,9.73
2018-09-04T18:28:28.455Z,9.27
2018-09-04T18:30:58.937Z,9.73
2018-09-04T18:33:29.148Z,9.17
2018-09-04T18:36:01.315Z,9.30
2018-09-04T18:38:34.104Z,9.30
2018-09-04T18:41:07.304Z,9.17
2018-09-04T18:43:38.441Z,9.20
2018-09-04T18:46:11.579Z,9.70
2018-09-04T18:48:45.692Z,9.67
2018-09-04T18:51:17.578Z,20.60
2018-09-04T18:53:49.171Z,9.30
2018-09-04T18:56:23.718Z,9.40
2018-09-04T18:58:54.001Z,9.70
2018-09-04T19:01:25.243Z,9.90
2018-09-04T19:03:56.100Z,9.77
2018-09-04T19:06:26.381Z,9.90
2018-09-04T19:08:56.403Z,9.40
2018-09-04T19:11:29.853Z,9.17
2018-09-04T19:14:02.379Z,9.43
2018-09-04T19:16:36.684Z,9.30
2018-09-04T19:19:09.226Z,10.00
2018-09-04T19:21:39.329Z,10.43
2018-09-04T19:24:14.642Z,10.47
2018-09-04T19:26:49.168Z,9.77
2018-09-04T19:29:24.406Z,10.60
2018-09-04T19:31:57.492Z,36.23
2018-09-04T19:34:28.108Z,28.40
2018-09-04T19:36:57.969Z,12.10
2018-09-04T19:39:28.274Z,11.87
2018-09-04T19:42:02.164Z,10.77
2018-09-04T19:44:36.592Z,10.30
2018-09-04T19:47:09.791Z,10.30
2018-09-04T19:49:40.101Z,10.63
2018-09-04T19:52:10.148Z,10.67
2018-09-04T19:54:40.538Z,11.00
2018-09-04T19:57:10.472Z,10.43
2018-09-04T19:59:40.093Z,10.50
2018-09-04T20:02:12.167Z,10.03
2018-09-04T20:04:42.804Z,10.10
2018-09-04T20:07:19.751Z,11.00
2018-09-04T20:09:49.300Z,10.43
2018-09-04T20:12:18.899Z,10.70
2018-09-04T20:14:49.497Z,10.67
2018-09-04T20:17:22.751Z,10.30
2018-09-04T20:19:52.464Z,10.33
2018-09-04T20:22:23.169Z,11.13
2018-09-04T20:24:54.684Z,11.17
2018-09-04T20:27:27.858Z,10.83
2018-09-04T20:30:02.517Z,10.70
2018-09-04T20:32:35.762Z,10.73
2018-09-04T20:35:07.602Z,11.20
2018-09-04T20:37:41.002Z,10.63
2018-09-04T20:40:14.309Z,11.43
2018-09-04T20:42:45.222Z,11.03
2018-09-04T20:45:14.411Z,10.30
2018-09-04T20:47:42.884Z,11.00
2018-09-04T20:50:11.236Z,11.37
2018-09-04T20:52:39.588Z,11.30
2018-09-04T20:55:07.976Z,11.27
2018-09-04T20:57:38.773Z,11.50
2018-09-04T21:00:20.818Z,11.43
2018-09-04T21:03:00.569Z,11.43
2018-09-04T21:05:40.948Z,11.20
2018-09-04T21:08:24.064Z,11.33
2018-09-04T21:10:53.132Z,10.93
2018-09-04T21:13:21.535Z,11.43
2018-09-04T21:15:49.901Z,11.53
2018-09-04T21:18:18.288Z,11.27
2018-09-04T21:20:46.647Z,11.63
2018-09-04T21:23:15.544Z,11.87
2018-09-04T21:25:43.924Z,11.53
2018-09-04T21:28:12.276Z,11.70
2018-09-04T21:30:40.641Z,11.50
2018-09-04T21:33:09.094Z,11.47
2018-09-04T21:35:37.444Z,11.73
2018-09-04T21:38:05.830Z,11.07
2018-09-04T21:40:34.192Z,11.97
2018-09-04T21:43:02.519Z,11.57
2018-09-04T21:45:30.894Z,12.27
2018-09-04T21:47:59.212Z,11.97
2018-09-04T21:50:27.563Z,11.63
2018-09-04T21:52:55.896Z,11.70
2018-09-04T21:55:24.248Z,11.80
2018-09-04T21:57:52.567Z,12.40
2018-09-04T22:00:25.520Z,12.13
2018-09-04T22:02:54.412Z,12.43
2018-09-04T22:05:24.056Z,11.83
2018-09-04T22:07:53.257Z,12.10
2018-09-04T22:10:21.650Z,11.47
2018-09-04T22:12:50.017Z,12.80
2018-09-04T22:15:18.396Z,12.00
2018-09-04T22:17:46.784Z,12.90
2018-09-04T22:20:15.131Z,12.80
2018-09-04T22:22:43.480Z,11.90
2018-09-04T22:25:11.853Z,12.20
2018-09-04T22:27:40.205Z,12.33
2018-09-04T22:30:08.617Z,12.13
2018-09-04T22:32:36.957Z,11.83
2018-09-04T22:35:05.448Z,12.20
2018-09-04T22:37:33.785Z,12.40
2018-09-04T22:40:02.133Z,11.97
2018-09-04T22:42:30.652Z,12.30
2018-09-04T22:44:59.020Z,12.70
2018-09-04T22:47:27.360Z,12.77
2018-09-04T22:50:00.927Z,12.47
2018-09-04T22:52:31.448Z,12.70
2018-09-04T22:55:02.632Z,12.20
2018-09-04T22:57:31.456Z,13.17
2018-09-04T22:59:59.836Z,12.83
2018-09-04T23:02:28.261Z,12.23
2018-09-04T23:04:57.061Z,12.13
2018-09-04T23:07:25.384Z,11.90
2018-09-04T23:09:53.757Z,13.20
2018-09-04T23:12:22.144Z,12.20
2018-09-04T23:14:50.512Z,11.80
2018-09-04T23:17:18.876Z,12.50
2018-09-04T23:19:47.285Z,11.97
2018-09-04T23:22:15.604Z,13.03
2018-09-04T23:24:43.936Z,12.83
2018-09-04T23:27:12.288Z,13.10
2018-09-04T23:29:40.624Z,12.53
2018-09-04T23:32:08.980Z,13.17
2018-09-04T23:34:37.833Z,12.40
2018-09-04T23:37:06.325Z,12.93
2018-09-04T23:39:34.668Z,12.80
2018-09-04T23:42:03.016Z,12.47
2018-09-04T23:44:31.352Z,12.97
2018-09-04T23:46:59.754Z,13.03
2018-09-04T23:49:28.607Z,13.53
2018-09-04T23:51:56.986Z,12.50
2018-09-04T23:54:25.527Z,13.00
2018-09-04T23:56:53.920Z,13.30
2018-09-04T23:59:22.573Z,12.93
